Check out our new PWSWeather beta!
PWSweather.com
Personal Weather Stations
Station Observations
158858
Slovensko, LevocaSK 05401

SlovenskoLevocaSK 05401

Lat: 49.0260192, Lon: 20.588875

Elevation: 555

Station Type: Davis Vantage Vue

Latest ConditionsUpdated 11:30:01 AM GMT+01:01 Wednesday, Feb 26, 2020
Currently Today's Max Today's Min Today's Average
Temperature 46.0°F7.8°C 46.8°F8.2°C 39.6°F4.2°C 43.9°F6.6°C
Dew Point 36.8°F2.7°C 37.9°F3.3°C 34.8°F1.6°C 36.5°F2.5°C
Winds 2.0 mph W3.2 kmh W 6.0 mph -9.7 kmh - - 1.3 mph 2.1 kmh
Wind Gusts 5.0 mph8.0 kmh 11.0 mph17.7 kmh - -
Humidity 70% 84% 69% 75%
Pressure 29.28 in991.5 mb 29.42 in996.3 mb 29.28 in991.5 mb -
Hour Temp Dew Point Humidity Winds Wind Gusts Pressure Precip Precip Rate Daily Precip Total
11:30 AM 46.0°F7.8°C 36.8°F2.7°C 70% 2.0 mph W3.2 kmh W 5.0 mph8.0 kmh 29.28 in991.5 mb 0.00 in0.0 mm 0.00 in0.0 mm 0.00 in0.0 mm
11:00 AM 45.9°F7.7°C 36.6°F2.6°C 70% Calm Calm 1.0 mph1.6 kmh 29.28 in991.5 mb 0.00 in0.0 mm 0.00 in0.0 mm 0.00 in0.0 mm
10:30 AM 44.6°F7.0°C 36.1°F2.3°C 72% 1.0 mph W1.6 kmh W 3.0 mph4.8 kmh 29.28 in991.5 mb 0.00 in0.0 mm 0.00 in0.0 mm 0.00 in0.0 mm
10:00 AM 45.7°F7.6°C 36.5°F2.5°C 70% Calm Calm 9.0 mph14.5 kmh 29.29 in991.9 mb 0.00 in0.0 mm 0.00 in0.0 mm 0.00 in0.0 mm
09:30 AM 45.5°F7.5°C 36.3°F2.4°C 70% Calm Calm 4.0 mph6.4 kmh 29.30 in992.2 mb 0.00 in0.0 mm 0.00 in0.0 mm 0.00 in0.0 mm
09:00 AM 45.7°F7.6°C 36.1°F2.3°C 69% 1.0 mph S1.6 kmh S 4.0 mph6.4 kmh 29.30 in992.2 mb 0.00 in0.0 mm 0.00 in0.0 mm 0.00 in0.0 mm
08:30 AM 44.8°F7.1°C 36.7°F2.6°C 73% Calm Calm 1.0 mph1.6 kmh 29.30 in992.2 mb 0.00 in0.0 mm 0.00 in0.0 mm 0.00 in0.0 mm
08:00 AM 39.9°F4.4°C 35.5°F1.9°C 84% 1.0 mph NE1.6 kmh NE 3.0 mph4.8 kmh 29.31 in992.6 mb 0.00 in0.0 mm 0.00 in0.0 mm 0.00 in0.0 mm
07:30 AM 39.6°F4.2°C 34.8°F1.6°C 83% Calm Calm 3.0 mph4.8 kmh 29.30 in992.2 mb 0.00 in0.0 mm 0.00 in0.0 mm 0.00 in0.0 mm
07:00 AM 39.9°F4.4°C 34.9°F1.6°C 82% 2.0 mph NE3.2 kmh NE 5.0 mph8.0 kmh 29.31 in992.6 mb 0.00 in0.0 mm 0.00 in0.0 mm 0.00 in0.0 mm
06:30 AM 41.2°F5.1°C 35.5°F1.9°C 80% Calm Calm 1.0 mph1.6 kmh 29.31 in992.6 mb 0.00 in0.0 mm 0.00 in0.0 mm 0.00 in0.0 mm
06:00 AM 41.9°F5.5°C 35.5°F1.9°C 78% 2.0 mph NE3.2 kmh NE 5.0 mph8.0 kmh 29.31 in992.6 mb 0.00 in0.0 mm 0.00 in0.0 mm 0.00 in0.0 mm
05:30 AM 42.4°F5.8°C 36.1°F2.3°C 78% 2.0 mph N3.2 kmh N 4.0 mph6.4 kmh 29.32 in992.9 mb 0.00 in0.0 mm 0.00 in0.0 mm 0.00 in0.0 mm
05:00 AM 43.0°F6.1°C 36.6°F2.6°C 78% Calm Calm 1.0 mph1.6 kmh 29.33 in993.2 mb 0.00 in0.0 mm 0.00 in0.0 mm 0.00 in0.0 mm
04:30 AM 43.3°F6.3°C 36.9°F2.7°C 78% 1.0 mph SSE1.6 kmh SSE 3.0 mph4.8 kmh 29.35 in993.9 mb 0.00 in0.0 mm 0.00 in0.0 mm 0.00 in0.0 mm
04:00 AM 45.3°F7.4°C 36.5°F2.5°C 71% 3.0 mph WNW4.8 kmh WNW 8.0 mph12.9 kmh 29.37 in994.6 mb 0.00 in0.0 mm 0.00 in0.0 mm 0.00 in0.0 mm
03:30 AM 44.8°F7.1°C 37.3°F2.9°C 75% 1.0 mph W1.6 kmh W 5.0 mph8.0 kmh 29.37 in994.6 mb 0.00 in0.0 mm 0.00 in0.0 mm 0.00 in0.0 mm
03:00 AM 45.1°F7.3°C 37.7°F3.2°C 75% 3.0 mph W4.8 kmh W 7.0 mph11.3 kmh 29.38 in994.9 mb 0.00 in0.0 mm 0.00 in0.0 mm 0.00 in0.0 mm
02:30 AM 44.2°F6.8°C 37.2°F2.9°C 76% Calm Calm 3.0 mph4.8 kmh 29.39 in995.3 mb 0.00 in0.0 mm 0.00 in0.0 mm 0.00 in0.0 mm
02:00 AM 45.5°F7.5°C 37.7°F3.2°C 74% Calm Calm 2.0 mph3.2 kmh 29.39 in995.3 mb 0.00 in0.0 mm 0.00 in0.0 mm 0.00 in0.0 mm
01:30 AM 46.2°F7.9°C 37.3°F2.9°C 71% 2.0 mph WNW3.2 kmh WNW 6.0 mph9.7 kmh 29.40 in995.6 mb 0.00 in0.0 mm 0.00 in0.0 mm 0.00 in0.0 mm
01:00 AM 46.8°F8.2°C 37.9°F3.3°C 71% 6.0 mph W9.7 kmh W 11.0 mph17.7 kmh 29.41 in995.9 mb 0.00 in0.0 mm 0.00 in0.0 mm 0.00 in0.0 mm
12:30 AM 42.3°F5.7°C 36.8°F2.7°C 81% 3.0 mph NNE4.8 kmh NNE 7.0 mph11.3 kmh 29.42 in996.3 mb 0.00 in0.0 mm 0.00 in0.0 mm 0.00 in0.0 mm
12:00 AM 43.5°F6.4°C 37.1°F2.8°C 78% 2.0 mph NNE3.2 kmh NNE 5.0 mph8.0 kmh 29.42 in996.3 mb 0.00 in0.0 mm 0.00 in0.0 mm 0.00 in0.0 mm